createdAt,value
2022-10-03T00:00:28.531Z,4.00
2022-10-03T00:03:44.966Z,4.10
2022-10-03T00:07:03.311Z,4.40
2022-10-03T00:10:19.365Z,6.40
2022-10-03T00:13:33.376Z,5.70
2022-10-03T00:16:50.007Z,4.40
2022-10-03T00:20:05.035Z,5.20
2022-10-03T00:23:18.395Z,5.30
2022-10-03T00:26:47.264Z,6.50
2022-10-03T00:30:14.692Z,4.40
2022-10-03T00:33:31.375Z,5.10
2022-10-03T00:36:49.897Z,4.20
2022-10-03T00:40:24.553Z,4.20
2022-10-03T00:44:00.613Z,3.90
2022-10-03T00:47:20.075Z,4.30
2022-10-03T00:50:46.020Z,4.40
2022-10-03T00:54:06.092Z,5.30
2022-10-03T00:57:29.912Z,5.20
2022-10-03T01:00:37.082Z,4.30
2022-10-03T01:03:57.340Z,4.30
2022-10-03T01:07:15.099Z,4.10
2022-10-03T01:10:24.325Z,4.00
2022-10-03T01:13:43.258Z,5.80
2022-10-03T01:17:04.079Z,4.40
2022-10-03T01:20:22.916Z,4.50
2022-10-03T01:24:02.697Z,4.60
2022-10-03T01:27:12.962Z,6.20
2022-10-03T01:30:26.085Z,4.00
2022-10-03T01:33:37.750Z,3.60
2022-10-03T01:36:51.800Z,5.00
2022-10-03T01:40:05.072Z,5.10
2022-10-03T01:43:21.267Z,3.70
2022-10-03T01:46:37.673Z,3.60
2022-10-03T01:49:49.971Z,4.80
2022-10-03T01:53:04.195Z,6.00
2022-10-03T01:56:17.242Z,3.30
2022-10-03T01:59:33.052Z,4.80
2022-10-03T02:02:46.827Z,4.80
2022-10-03T02:06:00.923Z,4.80
2022-10-03T02:09:13.986Z,5.30
2022-10-03T02:12:31.477Z,3.90
2022-10-03T02:15:49.559Z,3.20
2022-10-03T02:19:02.032Z,3.60
2022-10-03T02:22:29.906Z,4.30
2022-10-03T02:26:00.210Z,4.00
2022-10-03T02:29:32.452Z,4.00
2022-10-03T02:33:17.208Z,3.90
2022-10-03T02:36:49.898Z,4.00
2022-10-03T02:40:12.410Z,5.00
2022-10-03T02:43:43.522Z,4.20
2022-10-03T02:47:25.461Z,4.90
2022-10-03T02:51:05.534Z,5.20
2022-10-03T02:54:41.277Z,4.80
2022-10-03T02:58:18.325Z,4.80
2022-10-03T03:02:01.067Z,4.50
2022-10-03T03:05:31.418Z,4.50
2022-10-03T03:09:04.351Z,4.10
2022-10-03T03:12:40.436Z,4.50
2022-10-03T03:16:15.789Z,4.40
2022-10-03T03:19:43.646Z,4.40
2022-10-03T03:23:08.320Z,5.10
2022-10-03T03:26:53.355Z,4.70
2022-10-03T03:30:08.113Z,4.20
2022-10-03T03:33:26.131Z,4.40
2022-10-03T03:36:41.657Z,4.40
2022-10-03T03:40:04.167Z,4.70
2022-10-03T03:43:34.555Z,5.10
2022-10-03T03:46:55.863Z,4.60
2022-10-03T03:50:34.274Z,4.00
2022-10-03T03:54:03.272Z,4.00
2022-10-03T03:57:32.662Z,4.70
2022-10-03T04:00:56.451Z,3.90
2022-10-03T04:04:17.686Z,3.90
2022-10-03T04:07:36.504Z,4.60
2022-10-03T04:10:59.628Z,4.70
2022-10-03T04:14:29.435Z,4.20
2022-10-03T04:18:06.096Z,5.40
2022-10-03T04:21:30.503Z,5.20
2022-10-03T04:25:04.501Z,4.40
2022-10-03T04:28:46.760Z,4.90
2022-10-03T04:32:09.323Z,3.90
2022-10-03T04:35:47.404Z,4.00
2022-10-03T04:39:04.520Z,3.80
2022-10-03T04:42:21.518Z,4.10
2022-10-03T04:45:40.815Z,3.90
2022-10-03T04:48:52.911Z,4.00
2022-10-03T04:52:03.891Z,4.00
2022-10-03T04:55:25.315Z,4.20
2022-10-03T04:58:39.234Z,3.60
2022-10-03T05:01:52.280Z,3.90
2022-10-03T05:05:31.492Z,4.00
2022-10-03T05:08:44.414Z,4.60
2022-10-03T05:12:03.980Z,4.20
2022-10-03T05:15:22.879Z,4.50
2022-10-03T05:18:40.107Z,3.90
2022-10-03T05:21:56.173Z,3.80
2022-10-03T05:25:13.340Z,4.40
2022-10-03T05:28:26.909Z,4.20
2022-10-03T05:31:45.909Z,4.10
2022-10-03T05:35:07.870Z,4.20
2022-10-03T05:38:28.267Z,4.20
2022-10-03T05:41:36.747Z,3.30
2022-10-03T05:44:48.056Z,3.60
2022-10-03T05:48:03.206Z,3.60
2022-10-03T05:51:39.871Z,3.30
2022-10-03T05:55:12.176Z,3.10
2022-10-03T05:58:40.421Z,3.60
2022-10-03T06:02:15.080Z,3.50
2022-10-03T06:05:31.169Z,3.50
2022-10-03T06:12:10.288Z,4.40
2022-10-03T06:15:54.601Z,3.70
2022-10-03T06:19:13.444Z,3.00
2022-10-03T06:22:45.748Z,3.40
2022-10-03T06:26:22.708Z,3.00
2022-10-03T06:30:11.954Z,2.90
2022-10-03T06:33:54.748Z,3.30
2022-10-03T06:37:25.340Z,2.80
2022-10-03T06:41:00.098Z,3.00
2022-10-03T06:44:27.815Z,3.00
2022-10-03T06:48:09.793Z,2.60
2022-10-03T06:51:45.094Z,2.90
2022-10-03T06:55:30.518Z,3.30
2022-10-03T06:59:12.581Z,2.90
2022-10-03T07:02:41.803Z,2.90
2022-10-03T07:06:15.024Z,2.60
2022-10-03T07:13:29.057Z,2.60
2022-10-03T07:17:12.392Z,3.00
2022-10-03T07:20:52.565Z,2.80
2022-10-03T07:24:20.987Z,2.70
2022-10-03T07:27:50.758Z,2.60
2022-10-03T07:31:10.211Z,2.90
2022-10-03T07:34:48.755Z,2.60
2022-10-03T07:38:42.124Z,2.40
2022-10-03T07:42:15.148Z,2.80
2022-10-03T07:45:35.765Z,2.70
2022-10-03T07:49:17.614Z,3.30
2022-10-03T07:52:57.484Z,2.90
2022-10-03T07:56:17.772Z,2.50
2022-10-03T07:59:52.437Z,2.50
2022-10-03T08:03:29.026Z,2.80
2022-10-03T08:06:44.229Z,3.20
2022-10-03T08:10:01.921Z,2.60
2022-10-03T08:13:32.947Z,2.90
2022-10-03T08:17:14.860Z,2.70
2022-10-03T08:20:41.627Z,2.20
2022-10-03T08:24:35.362Z,3.10
2022-10-03T08:28:04.484Z,2.70
2022-10-03T08:31:45.547Z,2.60
2022-10-03T08:35:37.679Z,2.80
2022-10-03T08:39:22.089Z,2.80
2022-10-03T08:42:54.364Z,2.80
2022-10-03T08:46:28.312Z,2.60
2022-10-03T08:50:07.518Z,2.90
2022-10-03T08:53:40.477Z,2.40
2022-10-03T08:57:27.298Z,2.60
2022-10-03T09:00:45.298Z,2.70
2022-10-03T09:04:31.837Z,2.60
2022-10-03T09:08:00.733Z,2.40
2022-10-03T09:11:42.020Z,3.00
2022-10-03T09:15:17.080Z,2.50
2022-10-03T09:18:41.834Z,3.10
2022-10-03T09:22:14.287Z,2.50
2022-10-03T09:25:39.559Z,2.70
2022-10-03T09:29:04.284Z,3.60
2022-10-03T09:32:40.623Z,2.60
2022-10-03T09:36:13.307Z,2.60
2022-10-03T09:39:59.307Z,2.40
2022-10-03T09:43:33.071Z,2.90
2022-10-03T09:47:21.777Z,2.20
2022-10-03T09:51:09.868Z,2.00
2022-10-03T09:55:05.242Z,3.20
2022-10-03T09:58:31.409Z,4.60
2022-10-03T10:01:44.764Z,3.50
2022-10-03T10:05:05.725Z,2.20
2022-10-03T10:08:33.860Z,2.00
2022-10-03T10:12:11.291Z,2.20
2022-10-03T10:15:50.475Z,2.20
2022-10-03T10:19:27.204Z,1.80
2022-10-03T10:23:04.605Z,1.90
2022-10-03T10:26:45.422Z,2.40
2022-10-03T10:30:21.909Z,4.40
2022-10-03T10:34:13.004Z,2.30
2022-10-03T10:37:54.673Z,4.80
2022-10-03T10:41:34.524Z,3.50
2022-10-03T10:45:16.629Z,4.70
2022-10-03T10:49:03.980Z,3.50
2022-10-03T10:52:31.147Z,2.40
2022-10-03T10:56:04.619Z,2.20
2022-10-03T10:59:50.512Z,2.60
2022-10-03T11:03:29.036Z,2.10
2022-10-03T11:07:05.659Z,2.50
2022-10-03T11:10:35.458Z,2.20
2022-10-03T11:14:31.771Z,2.40
2022-10-03T11:18:19.513Z,2.10
2022-10-03T11:21:56.190Z,2.20
2022-10-03T11:25:40.650Z,2.40
2022-10-03T11:29:36.067Z,2.50
2022-10-03T11:33:24.673Z,2.40
2022-10-03T11:36:57.767Z,2.20
2022-10-03T11:40:20.683Z,2.20
2022-10-03T11:44:05.247Z,2.50
2022-10-03T11:47:28.895Z,2.20
2022-10-03T11:50:46.551Z,2.20
2022-10-03T11:54:19.535Z,2.50
2022-10-03T11:57:32.510Z,2.50
2022-10-03T12:00:41.856Z,2.20
2022-10-03T12:03:55.555Z,2.30
2022-10-03T12:07:32.223Z,2.30
2022-10-03T12:10:52.204Z,2.70
2022-10-03T12:14:21.559Z,2.00
2022-10-03T12:17:34.366Z,2.90
2022-10-03T12:21:01.304Z,2.80
2022-10-03T12:24:30.329Z,2.60
2022-10-03T12:27:45.373Z,3.10
2022-10-03T12:30:56.851Z,2.60
2022-10-03T12:34:17.495Z,2.80
2022-10-03T12:37:40.534Z,3.00
2022-10-03T12:40:55.561Z,2.90
2022-10-03T12:44:17.768Z,1.90
2022-10-03T12:47:54.969Z,1.70
2022-10-03T12:51:10.116Z,1.90
2022-10-03T12:54:34.681Z,1.90
2022-10-03T12:58:10.638Z,2.30
2022-10-03T13:01:28.584Z,3.40
2022-10-03T13:04:43.736Z,2.30
2022-10-03T13:07:56.866Z,5.40
2022-10-03T13:11:18.820Z,2.70
2022-10-03T13:14:43.830Z,1.90
2022-10-03T13:17:57.669Z,2.40
2022-10-03T13:21:33.770Z,2.50
2022-10-03T13:24:42.368Z,5.30
2022-10-03T13:27:54.325Z,4.20
2022-10-03T13:31:09.950Z,7.20
2022-10-03T13:34:21.683Z,4.40
2022-10-03T13:37:38.549Z,3.40
2022-10-03T13:40:50.009Z,2.20
2022-10-03T13:44:02.840Z,3.10
2022-10-03T13:47:26.771Z,2.10
2022-10-03T13:50:42.517Z,2.40
2022-10-03T13:54:01.374Z,3.20
2022-10-03T13:57:15.385Z,4.90
2022-10-03T14:00:25.075Z,2.50
2022-10-03T14:03:41.585Z,2.40
2022-10-03T14:06:52.565Z,2.20
2022-10-03T14:10:49.930Z,3.20
2022-10-03T14:14:44.738Z,2.80
2022-10-03T14:17:58.779Z,3.50
2022-10-03T14:21:36.961Z,3.30
2022-10-03T14:24:54.947Z,2.20
2022-10-03T14:28:09.752Z,2.20
2022-10-03T14:31:25.957Z,2.80
2022-10-03T14:34:46.958Z,2.90
2022-10-03T14:37:58.514Z,2.90
2022-10-03T14:41:10.647Z,2.50
2022-10-03T14:44:21.632Z,3.10
2022-10-03T14:47:35.438Z,3.00
2022-10-03T14:50:43.916Z,3.20
2022-10-03T14:54:01.268Z,2.90
2022-10-03T14:57:34.835Z,2.50
2022-10-03T15:00:51.587Z,2.90
2022-10-03T15:04:03.868Z,3.00
2022-10-03T15:07:12.107Z,3.00
2022-10-03T15:10:22.087Z,4.00
2022-10-03T15:13:34.943Z,5.40
2022-10-03T15:16:46.674Z,3.80
2022-10-03T15:19:57.160Z,4.40
2022-10-03T15:23:04.834Z,4.80
2022-10-03T15:26:18.289Z,3.20
2022-10-03T15:29:26.732Z,3.10
2022-10-03T15:32:38.486Z,4.60
2022-10-03T15:35:47.499Z,4.70
2022-10-03T15:39:00.650Z,3.60
2022-10-03T15:42:23.075Z,4.10
2022-10-03T15:45:33.722Z,3.20
2022-10-03T15:48:47.207Z,4.60
2022-10-03T15:51:55.356Z,4.20
2022-10-03T15:55:12.600Z,2.80
2022-10-03T15:58:22.083Z,2.70
2022-10-03T16:01:31.138Z,3.10
2022-10-03T16:04:40.927Z,3.80
2022-10-03T16:07:57.596Z,2.70
2022-10-03T16:11:10.734Z,3.10
2022-10-03T16:14:25.222Z,2.90
2022-10-03T16:17:44.926Z,2.30
2022-10-03T16:20:56.413Z,3.60
2022-10-03T16:24:06.487Z,2.80
2022-10-03T16:27:19.842Z,3.50
2022-10-03T16:30:28.534Z,3.80
2022-10-03T16:33:38.521Z,3.10
2022-10-03T16:36:50.624Z,3.50
2022-10-03T16:40:03.828Z,3.40
2022-10-03T16:43:17.448Z,4.40
2022-10-03T16:46:25.495Z,4.20
2022-10-03T16:49:58.352Z,3.30
2022-10-03T16:53:10.018Z,4.00
2022-10-03T16:56:19.086Z,4.80
2022-10-03T16:59:26.948Z,4.30
2022-10-03T17:02:33.795Z,4.60
2022-10-03T17:05:47.333Z,5.00
2022-10-03T17:08:56.858Z,5.00
2022-10-03T17:12:05.481Z,5.00
2022-10-03T17:15:21.494Z,4.70
2022-10-03T17:18:32.369Z,4.90
2022-10-03T17:21:43.418Z,4.50
2022-10-03T17:24:54.993Z,4.70
2022-10-03T17:28:05.984Z,5.00
2022-10-03T17:31:29.580Z,5.00
2022-10-03T17:34:41.438Z,4.60
2022-10-03T17:37:58.191Z,4.40
2022-10-03T17:41:18.870Z,5.00
2022-10-03T17:44:35.359Z,4.70
2022-10-03T17:47:52.373Z,4.40
2022-10-03T17:51:04.892Z,5.70
2022-10-03T17:54:17.383Z,5.90
2022-10-03T17:57:28.968Z,5.00
2022-10-03T18:00:41.758Z,5.00
2022-10-03T18:03:52.020Z,4.40
2022-10-03T18:07:02.865Z,4.50
2022-10-03T18:10:21.809Z,9.20
2022-10-03T18:13:35.171Z,5.10
2022-10-03T18:16:49.024Z,4.40
2022-10-03T18:20:10.507Z,6.10
2022-10-03T18:23:53.077Z,5.10
2022-10-03T18:27:10.583Z,4.90
2022-10-03T18:30:23.798Z,5.00
2022-10-03T18:33:36.399Z,4.50
2022-10-03T18:36:47.485Z,5.50
2022-10-03T18:39:56.199Z,6.40
2022-10-03T18:43:02.753Z,4.60
2022-10-03T18:46:16.384Z,4.70
2022-10-03T18:49:34.890Z,5.80
2022-10-03T18:52:52.597Z,5.90
2022-10-03T18:56:03.395Z,51.20
2022-10-03T18:59:24.587Z,20.40
2022-10-03T19:02:38.042Z,19.40
2022-10-03T19:05:50.475Z,20.80
2022-10-03T19:09:01.001Z,32.80
2022-10-03T19:12:18.955Z,18.20
2022-10-03T19:15:38.622Z,13.60
2022-10-03T19:18:50.119Z,18.80
2022-10-03T19:21:57.751Z,7.70
2022-10-03T19:25:07.010Z,13.60
2022-10-03T19:28:19.878Z,63.80
2022-10-03T19:31:33.188Z,35.50
2022-10-03T19:34:43.575Z,42.40
2022-10-03T19:37:52.473Z,18.80
2022-10-03T19:41:05.120Z,21.60
2022-10-03T19:44:15.920Z,8.00
2022-10-03T19:47:31.277Z,26.50
2022-10-03T19:50:39.681Z,33.10
2022-10-03T19:53:47.288Z,8.60
2022-10-03T19:56:54.148Z,16.90
2022-10-03T20:00:03.119Z,30.20
2022-10-03T20:03:21.734Z,5.70
2022-10-03T20:06:33.376Z,8.70
2022-10-03T20:09:41.514Z,5.90
2022-10-03T20:12:53.307Z,6.80
2022-10-03T20:16:00.225Z,7.50
2022-10-03T20:19:12.543Z,35.00
2022-10-03T20:22:18.965Z,14.70
2022-10-03T20:25:32.648Z,29.60
2022-10-03T20:28:57.023Z,5.70
2022-10-03T20:32:04.840Z,18.50
2022-10-03T20:35:20.939Z,7.30
2022-10-03T20:38:37.659Z,14.20
2022-10-03T20:42:00.701Z,7.80
2022-10-03T20:45:15.776Z,6.60
2022-10-03T20:48:30.018Z,13.30
2022-10-03T20:51:58.421Z,8.60
2022-10-03T20:55:09.366Z,9.00
2022-10-03T20:58:31.209Z,13.60
2022-10-03T21:01:39.292Z,10.20
2022-10-03T21:04:54.968Z,9.40
2022-10-03T21:08:05.076Z,9.20
2022-10-03T21:11:22.624Z,16.10
2022-10-03T21:14:34.284Z,8.10
2022-10-03T21:17:43.559Z,7.60
2022-10-03T21:20:51.994Z,10.00
2022-10-03T21:24:04.219Z,6.00
2022-10-03T21:27:15.491Z,7.90
2022-10-03T21:30:24.195Z,7.10
2022-10-03T21:33:35.667Z,9.20
2022-10-03T21:36:49.176Z,7.20
2022-10-03T21:40:06.824Z,8.00
2022-10-03T21:43:22.232Z,7.50
2022-10-03T21:46:40.562Z,11.90
2022-10-03T21:49:57.064Z,7.20
2022-10-03T21:53:21.229Z,5.40
2022-10-03T21:56:46.541Z,6.60
2022-10-03T22:00:11.433Z,4.80
2022-10-03T22:03:24.031Z,5.30
2022-10-03T22:06:36.329Z,5.20
2022-10-03T22:09:49.642Z,7.30
2022-10-03T22:12:59.860Z,4.50
2022-10-03T22:16:12.589Z,4.50
2022-10-03T22:19:38.024Z,4.20
2022-10-03T22:22:56.382Z,5.50
2022-10-03T22:26:12.568Z,4.30
2022-10-03T22:29:28.439Z,5.00
2022-10-03T22:32:39.244Z,5.50
2022-10-03T22:35:54.310Z,5.30
2022-10-03T22:39:01.162Z,4.40
2022-10-03T22:42:08.163Z,6.20
2022-10-03T22:45:17.183Z,4.90
2022-10-03T22:48:28.299Z,5.30
2022-10-03T22:51:37.045Z,7.00
2022-10-03T22:54:47.378Z,5.10
2022-10-03T22:57:55.236Z,5.10
2022-10-03T23:01:03.449Z,5.40
2022-10-03T23:04:15.227Z,4.80
2022-10-03T23:07:47.214Z,8.70
2022-10-03T23:10:56.756Z,5.20
2022-10-03T23:14:10.600Z,5.60
2022-10-03T23:17:36.549Z,4.50
2022-10-03T23:21:06.168Z,5.70
2022-10-03T23:24:20.031Z,5.80
2022-10-03T23:27:51.690Z,5.60
2022-10-03T23:30:58.203Z,5.40
2022-10-03T23:34:04.962Z,8.00
2022-10-03T23:37:39.603Z,7.00
2022-10-03T23:40:50.796Z,6.60
2022-10-03T23:44:00.250Z,5.40
2022-10-03T23:47:10.817Z,6.80
2022-10-03T23:50:24.494Z,4.90
2022-10-03T23:53:38.864Z,5.20
2022-10-03T23:56:48.070Z,5.20
2022-10-03T23:59:54.531Z,5.60
